EW3283 Weather Reports


Display with metric or nautical units.
time (UTC)temp
F
wind
direction
speed
MPH
gust
MPH
rain 1hr
in
rain 24hr
in
rain mn
in
humidity
%
barometer
mb
20190718031248 77 93 0.0 0.0 0.00 0.00 0.33 88 1005.8
20190718030248 77 102 0.0 0.0 0.00 0.00 0.33 88 1005.8
20190718025234 77 96 0.0 0.0 0.00 0.00 0.33 88 1005.8
20190718024232 78 105 0.0 0.0 0.00 0.00 0.33 87 1005.6
20190718023256 78 98 0.0 0.0 0.00 0.00 0.33 86 1005.6
20190718021152 79 115 1.0 0.0 0.00 0.00 0.33 83 1005.7
20190718014151 80 92 0.0 0.0 0.00 0.00 0.33 82 1006.0
20190718010151 81 94 2.0 0.0 0.00 0.00 0.33 78 1006.0
20190718005151 82 101 2.0 0.0 0.00 0.00 0.33 77 1006.1
20190718002211 83 165 0.0 0.0 0.00 0.00 0.33 74 1006.4
20190718001152 83 225 1.0 0.0 0.00 0.00 0.33 74 1006.3
20190718000151 83 151 0.0 0.0 0.00 0.00 0.33 74 1006.5
20190717233151 84 144 0.0 0.0 0.00 0.00 0.33 71 1006.6
20190717231151 85 245 1.0 0.0 0.00 0.00 0.33 69 1006.5
20190717225151 85 251 1.0 0.0 0.00 0.00 0.33 68 1006.5
20190717224151 84 130 0.0 0.0 0.00 0.00 0.33 70 1006.6
20190717223151 85 216 7.0 0.0 0.00 0.00 0.33 69 1006.7
20190717222151 84 232 0.0 0.0 0.00 0.00 0.33 71 1006.9
20190717215151 85 203 8.0 0.0 0.00 0.00 0.33 69 1007.0
20190717214151 85 256 4.0 0.0 0.00 0.00 0.33 71 1007.0
20190717211152 85 241 7.0 12.0 0.00 0.00 0.33 71 1007.0
20190717205151 85 222 3.0 0.0 0.00 0.00 0.33 70 1006.9
20190717204151 84 205 1.0 0.0 0.00 0.00 0.33 70 1006.8
20190717203151 84 245 3.0 0.0 0.00 0.00 0.33 70 1006.8
20190717202151 84 207 1.0 0.0 0.00 0.00 0.33 70 1006.7
20190717201151 84 221 11.0 0.0 0.00 0.00 0.33 69 1006.5
20190717193255 82 207 1.0 0.0 0.00 0.00 0.33 73 1006.3
20190717192234 82 215 2.0 0.0 0.00 0.00 0.33 74 1006.6
20190717191252 81 181 3.0 0.0 0.00 0.00 0.33 74 1006.4
20190717181151 79 200 8.0 19.0 0.00 0.00 0.33 78 1005.3
20190717180152 79 195 6.0 19.0 0.00 0.00 0.33 76 1005.1
20190717175151 78 215 10.0 22.0 0.00 0.00 0.33 76 1005.3
20190717172152 76 143 6.0 17.0 0.00 0.00 0.32 77 1005.2
20190717163151 69 75 13.0 21.0 0.00 0.00 0.32 90 1005.7
20190717162152 69 122 16.0 23.0 0.00 0.00 0.32 91 1006.9
20190717161151 69 146 14.0 16.0 0.00 0.00 0.32 91 1008.1
20190717160151 69 186 0.0 0.0 0.00 0.00 0.32 92 1010.2
20190717155151 70 215 2.0 0.0 0.00 0.00 0.32 92 1010.8
20190717154151 70 329 0.0 0.0 0.00 0.00 0.32 90 1009.7
20190717153151 70 326 1.0 0.0 0.00 0.00 0.32 90 1008.9
20190717152152 69 335 3.0 0.0 0.00 0.00 0.32 91 1008.7
20190717150151 69 317 3.0 0.0 0.00 0.00 0.32 89 1008.5
20190717145151 68 74 3.0 20.0 0.00 0.00 0.32 90 1008.1
20190717144151 68 318 8.0 13.0 0.00 0.00 0.32 90 1008.2
20190717142151 67 340 4.0 24.0 0.00 0.00 0.32 92 1006.6
20190717141151 67 41 8.0 22.0 0.00 0.00 0.32 94 1006.8
20190717134151 68 50 3.0 0.0 0.00 0.00 0.24 95 1012.2
20190717133152 68 330 3.0 0.0 0.00 0.00 0.22 96 1012.7
20190717132151 68 308 3.0 0.0 0.00 0.00 0.20 96 1012.7
20190717130151 69 294 2.0 0.0 0.00 0.00 0.17 96 1012.1
20190717125151 69 296 0.0 0.0 0.00 0.00 0.14 97 1011.7
20190717124151 69 271 4.0 0.0 0.00 0.00 0.10 97 1011.9
20190717120152 69 49 7.0 0.0 0.00 0.00 0.05 96 1009.2
20190717115259 69 32 3.0 0.0 0.00 0.00 0.04 96 1010.1
20190717113251 70 46 3.0 0.0 0.00 0.00 0.00 94 1010.2
20190717111228 70 45 5.0 0.0 0.00 0.00 0.00 93 1010.0
20190717104215 70 92 2.0 0.0 0.00 0.00 0.00 92 1009.2
20190717103249 70 100 0.0 0.0 0.00 0.00 0.00 92 1009.4
20190717102239 70 101 0.0 0.0 0.00 0.00 0.00 92 1009.7
20190717100221 70 136 0.0 0.0 0.00 0.00 0.00 92 1009.2
20190717095306 70 111 0.0 0.0 0.00 0.00 0.00 92 1009.0
20190717094222 70 117 0.0 0.0 0.00 0.00 0.00 92 1009.0
20190717092252 70 90 2.0 0.0 0.00 0.00 0.00 91 1008.5
20190717091239 70 112 3.0 0.0 0.00 0.00 0.00 91 1008.4
20190717090250 70 101 7.0 0.0 0.00 0.00 0.00 91 1008.4
20190717085218 69 123 5.0 0.0 0.00 0.00 0.00 91 1008.8
20190717084232 69 92 1.0 0.0 0.00 0.00 0.00 91 1009.0
20190717083155 69 68 0.0 0.0 0.00 0.00 0.00 91 1009.2
20190717081248 70 122 1.0 0.0 0.00 0.00 0.00 91 1009.1
20190717074217 70 101 0.0 0.0 0.00 0.00 0.00 91 1009.7
20190717073247 70 130 0.0 0.0 0.00 0.00 0.00 90 1009.9
20190717072255 70 132 0.0 0.0 0.00 0.00 0.00 90 1010.0
20190717070229 70 131 0.0 0.0 0.00 0.00 0.00 89 1010.0
20190717063309 71 118 0.0 0.0 0.00 0.00 0.00 88 1009.8
20190717061223 71 153 0.0 0.0 0.00 0.00 0.00 87 1010.0
20190717060254 71 145 0.0 0.0 0.00 0.00 0.00 86 1010.0
20190717055247 72 125 0.0 0.0 0.00 0.00 0.00 86 1009.8
20190717053321 72 212 0.0 0.0 0.00 0.00 0.00 86 1010.3
20190717052310 71 249 0.0 0.0 0.00 0.00 0.00 87 1010.3
20190717051218 72 152 0.0 0.0 0.00 0.00 0.00 86 1010.1
20190717043240 73 129 0.0 0.0 0.00 0.00 0.00 85 1010.3
20190717041253 74 141 0.0 0.0 0.00 0.00 0.00 83 1010.2
20190717040250 74 110 0.0 0.0 0.00 0.00 0.00 83 1010.3
20190717035229 74 105 4.0 0.0 0.00 0.00 0.00 84 1010.3
20190717034223 74 113 0.0 0.0 0.00 0.00 0.00 85 1010.4
20190717033212 74 103 5.0 0.0 0.00 0.00 0.00 84 1010.4
20190717032242 74 85 0.0 0.0 0.00 0.00 0.00 83 1010.4